Time;durP1;ratioP1;P1;durP2;ratioP2;P2;SDS_P1;SDS_P2;PMS_P1;PMS_P2;Temp;Humidity;BMP_temperature;BMP_pressure;BME280_temperature;BME280_humidity;BME280_pressure;Samples;Min_cycle;Max_cycle;Signal;HPM_P1;HPM_P2
2021/04/11 00:00:46;;;;;;;48.38;21.25;;;;;;;4.26;59.96;97340.31;1781634;80;25927;-78
2021/04/11 00:03:22;;;;;;;49.88;21.87;;;;;;;4.23;60.04;97332.64;1781511;80;26104;-79
2021/04/11 00:05:50;;;;;;;62.90;23.65;;;;;;;4.21;60.15;97332.00;1781481;80;25694;-79
2021/04/11 00:08:20;;;;;;;52.78;20.85;;;;;;;4.17;60.14;97326.16;1781507;80;25760;-79
2021/04/11 00:10:52;;;;;;;42.88;18.80;;;;;;;4.16;60.21;97319.15;1781616;80;26448;-79
2021/04/11 00:13:27;;;;;;;42.98;18.55;;;;;;;4.14;60.32;97314.48;1780806;80;25773;-78
2021/04/11 00:15:55;;;;;;;40.95;17.73;;;;;;;4.11;60.50;97321.50;1781700;80;27481;-78
2021/04/11 00:18:22;;;;;;;40.10;18.52;;;;;;;4.03;60.61;97321.53;1781512;80;25731;-79
2021/04/11 00:20:50;;;;;;;38.00;17.80;;;;;;;3.96;60.63;97312.56;1781593;80;25697;-78
2021/04/11 00:23:20;;;;;;;39.23;20.25;;;;;;;3.94;60.81;97317.23;1781550;80;25892;-79
2021/04/11 00:25:48;;;;;;;39.30;19.62;;;;;;;3.97;60.88;97323.08;1781547;80;25682;-79
2021/04/11 00:28:17;;;;;;;54.83;20.43;;;;;;;3.99;60.86;97317.03;1781532;80;27654;-78
2021/04/11 00:30:45;;;;;;;57.25;20.97;;;;;;;4.01;60.88;97316.86;1781537;80;25635;-78
2021/04/11 00:33:38;;;;;;;60.45;20.37;;;;;;;4.03;60.99;97312.69;1781586;80;25739;-78
2021/04/11 00:36:16;;;;;;;54.63;20.35;;;;;;;4.02;61.00;97318.53;1781368;80;25776;-79
2021/04/11 00:38:44;;;;;;;53.42;18.87;;;;;;;3.99;61.02;97318.37;1781522;80;25762;-78
2021/04/11 00:41:26;;;;;;;43.63;18.10;;;;;;;4.02;61.11;97314.52;1781389;80;28471;-78
2021/04/11 00:43:54;;;;;;;40.77;16.33;;;;;;;4.01;61.11;97309.35;1780240;80;25750;-78
2021/04/11 00:46:49;;;;;;;34.55;15.08;;;;;;;3.97;61.18;97308.38;1781536;80;25735;-79
2021/04/11 00:49:43;;;;;;;35.90;16.05;;;;;;;3.92;61.25;97308.05;1755214;80;26469;-78
2021/04/11 00:52:14;;;;;;;28.80;13.25;;;;;;;3.81;61.35;97307.09;1781652;80;25775;-78
2021/04/11 00:54:43;;;;;;;29.10;14.05;;;;;;;3.64;61.42;97302.78;1781537;80;27486;-78
2021/04/11 00:57:13;;;;;;;26.10;12.75;;;;;;;3.56;61.65;97305.48;1781455;80;25671;-79
2021/04/11 00:59:40;;;;;;;26.48;13.43;;;;;;;3.56;61.79;97302.31;1781465;80;25811;-77
2021/04/11 01:02:08;;;;;;;33.05;13.65;;;;;;;3.56;61.81;97308.16;1781501;80;25734;-78
2021/04/11 01:04:36;;;;;;;38.10;17.05;;;;;;;3.56;61.93;97300.14;1781577;80;25643;-78
2021/04/11 01:07:09;;;;;;;27.20;14.25;;;;;;;3.56;61.95;97300.14;1781590;80;28470;-78
2021/04/11 01:09:41;;;;;;;23.42;12.65;;;;;;;3.61;62.05;97294.64;1781394;80;25762;-78
2021/04/11 01:12:13;;;;;;;35.13;12.78;;;;;;;3.59;62.01;97291.30;1781758;80;25361;-78
2021/04/11 01:14:42;;;;;;;26.02;13.25;;;;;;;3.59;62.05;97290.47;1781839;80;26492;-78
2021/04/11 01:17:14;;;;;;;32.50;13.88;;;;;;;3.57;62.17;97289.30;1781579;80;25714;-79
2021/04/11 01:19:42;;;;;;;37.55;15.30;;;;;;;3.56;62.19;97281.46;1781140;80;28687;-78
2021/04/11 01:22:39;;;;;;;42.93;14.85;;;;;;;3.51;62.25;97276.62;1781480;80;25723;-78
2021/04/11 01:25:15;;;;;;;34.30;14.05;;;;;;;3.51;62.28;97265.11;1781622;80;25721;-78
2021/04/11 01:27:42;;;;;;;35.08;14.60;;;;;;;3.52;62.42;97277.45;1780865;80;25774;-78
2021/04/11 01:30:15;;;;;;;39.53;14.47;;;;;;;3.45;62.43;97286.66;1781555;80;25762;-78
2021/04/11 01:32:43;;;;;;;35.23;14.53;;;;;;;3.39;62.45;97295.33;1780998;80;27508;-78
2021/04/11 01:35:16;;;;;;;24.25;10.95;;;;;;;3.24;62.37;97301.03;1781490;80;25860;-78
2021/04/11 01:37:44;;;;;;;23.38;11.95;;;;;;;3.13;62.57;97304.88;1781682;80;25789;-78
2021/04/11 01:40:16;;;;;;;27.73;12.33;;;;;;;3.09;62.75;97297.37;1781469;80;25765;-77
2021/04/11 01:42:44;;;;;;;28.23;11.80;;;;;;;3.07;62.86;97300.20;1762805;80;25854;-78
2021/04/11 01:45:14;;;;;;;26.90;11.55;;;;;;;3.04;62.96;97293.86;1761471;80;27493;-79
2021/04/11 01:47:42;;;;;;;35.28;13.85;;;;;;;3.00;63.03;97295.71;1761539;80;25846;-79
2021/04/11 01:50:12;;;;;;;25.80;11.25;;;;;;;2.88;63.03;97305.88;1761557;81;26036;-79
2021/04/11 01:52:41;;;;;;;34.83;12.90;;;;;;;2.84;63.25;97308.53;1761507;81;25742;-78
2021/04/11 01:55:11;;;;;;;34.15;13.58;;;;;;;2.82;63.32;97306.52;1761639;81;25783;-79
2021/04/11 01:57:39;;;;;;;27.70;12.35;;;;;;;2.81;63.28;97310.18;1761593;81;27500;-77
2021/04/11 02:00:12;;;;;;;33.75;14.95;;;;;;;2.79;63.38;97310.84;1761445;81;25932;-79
2021/04/11 02:02:40;;;;;;;29.48;12.88;;;;;;;2.79;63.49;97313.00;1760902;81;26227;-77
2021/04/11 02:05:17;;;;;;;30.32;11.95;;;;;;;2.73;63.49;97322.17;1761543;81;25763;-79
2021/04/11 02:07:46;;;;;;;28.80;11.83;;;;;;;2.72;63.55;97309.34;1761638;81;25799;-78
2021/04/11 02:10:17;;;;;;;28.92;12.25;;;;;;;2.73;63.69;97317.68;1761533;81;27598;-78
2021/04/11 02:12:47;;;;;;;29.70;13.28;;;;;;;2.61;63.66;97314.16;1761372;81;26574;-78
2021/04/11 02:15:23;;;;;;;29.25;12.15;;;;;;;2.52;63.93;97311.48;1761500;81;25771;-78
2021/04/11 02:17:54;;;;;;;25.77;11.88;;;;;;;2.51;63.99;97308.98;1761159;81;26590;-78
2021/04/11 02:20:28;;;;;;;30.48;12.23;;;;;;;2.44;63.99;97300.80;1761693;81;25707;-78
2021/04/11 02:22:56;;;;;;;26.25;12.37;;;;;;;2.42;64.07;97302.78;1740171;80;27560;-78
2021/04/11 02:25:28;;;;;;;21.42;11.35;;;;;;;2.34;64.00;97305.44;1761644;80;26131;-78
2021/04/11 02:27:57;;;;;;;21.10;10.60;;;;;;;2.26;64.19;97306.75;1740029;81;25831;-79
2021/04/11 02:30:27;;;;;;;20.85;9.63;;;;;;;2.26;64.24;97308.09;1761484;81;26359;-78
2021/04/11 02:32:57;;;;;;;18.92;10.30;;;;;;;2.27;64.35;97308.42;1761449;81;25850;-79
2021/04/11 02:35:28;;;;;;;23.20;12.28;;;;;;;2.30;64.46;97302.75;1761287;81;27501;-78
2021/04/11 02:37:59;;;;;;;32.73;14.03;;;;;;;2.32;64.57;97304.76;1761310;81;26167;-79
2021/04/11 02:40:32;;;;;;;30.50;13.85;;;;;;;2.35;64.66;97304.44;1761909;79;25822;-77
2021/04/11 02:43:01;;;;;;;28.02;12.43;;;;;;;2.40;64.75;97300.80;1761568;80;25784;-77
2021/04/11 02:45:40;;;;;;;24.57;13.03;;;;;;;2.45;64.75;97306.45;1761738;79;26283;-76
2021/04/11 02:48:11;;;;;;;32.08;12.50;;;;;;;2.49;64.76;97305.64;1761698;81;28461;-77
2021/04/11 02:50:42;;;;;;;24.23;11.43;;;;;;;2.46;64.70;97300.14;1761587;81;25621;-77
2021/04/11 02:53:15;;;;;;;19.57;10.30;;;;;;;2.47;64.67;97303.14;1761626;81;25309;-77
2021/04/11 02:55:44;;;;;;;25.40;9.33;;;;;;;2.43;64.59;97290.30;1761636;81;26227;-78
2021/04/11 02:58:16;;;;;;;19.62;9.00;;;;;;;2.39;64.74;97288.98;1761622;80;25728;-77
2021/04/11 03:01:07;;;;;;;21.73;10.78;;;;;;;2.25;64.74;97294.92;1761544;81;28532;-77
2021/04/11 03:03:35;;;;;;;20.30;9.75;;;;;;;2.22;64.95;97295.24;1740085;81;25753;-78
2021/04/11 03:06:16;;;;;;;20.05;9.58;;;;;;;2.26;64.94;97294.77;1761686;81;25313;-77
2021/04/11 03:08:48;;;;;;;20.45;9.20;;;;;;;2.27;64.80;97289.78;1761664;80;25703;-77
2021/04/11 03:11:36;;;;;;;19.02;9.20;;;;;;;2.25;64.76;97292.27;1761624;81;25689;-77
2021/04/11 03:14:06;;;;;;;20.48;9.03;;;;;;;2.23;64.76;97295.09;1760768;81;28990;-78
2021/04/11 03:16:36;;;;;;;19.35;9.28;;;;;;;2.24;64.93;97299.91;1761454;81;26283;-77
2021/04/11 03:19:05;;;;;;;16.50;8.58;;;;;;;2.25;64.96;97302.42;1761614;80;25679;-77
2021/04/11 03:21:35;;;;;;;17.07;8.85;;;;;;;2.29;64.99;97304.27;1761600;81;26780;-78
2021/04/11 03:24:05;;;;;;;17.27;9.08;;;;;;;2.30;65.00;97302.75;1761659;80;25858;-78
2021/04/11 03:26:46;;;;;;;14.50;8.35;;;;;;;2.34;65.05;97301.44;1761639;81;27616;-78
2021/04/11 03:29:38;;;;;;;15.35;8.78;;;;;;;2.35;65.09;97299.11;1761654;80;26148;-78
2021/04/11 03:32:28;;;;;;;17.95;9.90;;;;;;;2.34;65.15;97304.59;1761860;81;26300;-78
2021/04/11 03:34:59;;;;;;;20.92;10.28;;;;;;;2.31;65.19;97303.58;1740115;81;26486;-78
2021/04/11 03:37:29;;;;;;;14.78;8.73;;;;;;;2.30;65.24;97305.41;1761740;81;25717;-78
2021/04/11 03:39:58;;;;;;;13.13;8.13;;;;;;;2.28;65.09;97302.10;1761607;81;27738;-78
2021/04/11 03:42:29;;;;;;;13.05;8.33;;;;;;;2.23;65.07;97301.74;1771978;80;25647;-77
2021/04/11 03:44:58;;;;;;;17.32;9.43;;;;;;;2.20;65.14;97297.23;1781594;80;25748;-77
2021/04/11 03:47:52;;;;;;;24.57;10.53;;;;;;;2.12;65.11;97292.72;1781552;80;26393;-78
2021/04/11 03:50:43;;;;;;;21.00;11.70;;;;;;;2.05;65.27;97287.72;1781582;80;25863;-77
2021/04/11 03:53:46;;;;;;;21.55;11.18;;;;;;;2.03;65.33;97281.71;1781601;80;28467;-77
2021/04/11 03:56:16;;;;;;;20.72;10.90;;;;;;;2.00;65.45;97278.03;1781572;80;25845;-78
2021/04/11 03:58:51;;;;;;;21.10;9.73;;;;;;;1.98;65.50;97283.52;1781508;80;25722;-78
2021/04/11 04:01:23;;;;;;;15.18;9.30;;;;;;;2.02;65.47;97278.71;1781475;80;26668;-77
2021/04/11 04:03:51;;;;;;;;;;;;;;;2.04;65.50;97276.73;1782959;80;25772;-77
2021/04/11 04:06:30;;;;;;;18.92;10.90;;;;;;;2.04;65.59;97287.37;1781507;79;27783;-77
2021/04/11 04:08:58;;;;;;;15.35;8.78;;;;;;;2.02;65.49;97283.55;1761990;81;26182;-76
2021/04/11 04:11:56;;;;;;;18.27;9.18;;;;;;;2.00;65.34;97288.69;1781544;80;25775;-77
2021/04/11 04:15:10;;;;;;;17.87;8.98;;;;;;;1.97;65.32;97289.00;1780979;80;25888;-78
2021/04/11 04:18:12;;;;;;;16.48;9.13;;;;;;;1.95;65.47;97293.14;1781515;80;25721;-78
2021/04/11 04:24:26;;;;;;;17.20;9.03;;;;;;;2.00;65.83;97282.86;1873567;76;34830;-79
2021/04/11 04:27:29;;;;;;;21.52;9.90;;;;;;;1.97;65.80;97283.67;1852909;77;25841;-79
2021/04/11 04:30:22;;;;;;;16.62;9.03;;;;;;;1.98;65.85;97292.00;1852798;77;27572;-78
2021/04/11 04:33:01;;;;;;;17.67;9.35;;;;;;;1.90;65.85;97296.80;1852705;77;25685;-78
2021/04/11 04:35:53;;;;;;;27.10;11.60;;;;;;;1.85;65.94;97291.11;1849078;77;25801;-78
2021/04/11 04:38:26;;;;;;;42.62;17.07;;;;;;;1.87;65.93;97289.63;1852771;77;25609;-79
2021/04/11 04:41:14;;;;;;;39.38;18.23;;;;;;;1.88;65.86;97280.65;1852475;77;25829;-79
2021/04/11 04:44:03;;;;;;;30.05;14.73;;;;;;;1.93;65.94;97277.02;1852771;77;27500;-79
2021/04/11 04:46:58;;;;;;;36.00;16.73;;;;;;;1.95;66.00;97279.00;1852665;77;25716;-79
2021/04/11 04:49:40;;;;;;;38.88;17.77;;;;;;;2.00;66.15;97279.36;1852761;77;25689;-78
2021/04/11 04:52:12;;;;;;;31.55;17.15;;;;;;;2.04;66.14;97272.73;1848320;77;26180;-79
2021/04/11 04:54:53;;;;;;;32.60;16.85;;;;;;;2.05;66.23;97267.75;1852809;77;25657;-79
2021/04/11 04:57:38;;;;;;;36.55;19.40;;;;;;;2.04;66.23;97272.73;1852168;77;28658;-79
2021/04/11 05:00:23;;;;;;;42.35;22.82;;;;;;;2.07;66.30;97273.22;1852592;77;25695;-79
2021/04/11 05:03:11;;;;;;;36.13;19.27;;;;;;;2.07;66.44;97269.23;1852694;76;25677;-79
2021/04/11 05:05:53;;;;;;;28.45;17.30;;;;;;;2.11;66.56;97267.09;1852737;77;26067;-79
2021/04/11 05:08:47;;;;;;;30.52;14.13;;;;;;;2.19;66.57;97265.77;1852901;77;25716;-79
2021/04/11 05:11:38;;;;;;;24.05;12.40;;;;;;;2.26;66.62;97272.63;1810990;77;28805;-80
2021/04/11 05:14:14;;;;;;;19.95;10.93;;;;;;;2.36;66.61;97268.81;1852668;77;25775;-80
2021/04/11 05:16:48;;;;;;;24.95;11.65;;;;;;;2.43;66.60;97265.82;1852678;76;25728;-79
2021/04/11 05:19:30;;;;;;;19.23;10.35;;;;;;;2.54;66.66;97267.33;1852751;77;25622;-80
2021/04/11 05:22:22;;;;;;;17.60;10.55;;;;;;;2.65;66.63;97268.88;1851911;77;25800;-79
2021/04/11 05:24:55;;;;;;;21.23;10.32;;;;;;;2.76;66.57;97265.88;1847723;76;33013;-79
2021/04/11 05:27:27;;;;;;;26.68;14.18;;;;;;;2.86;66.58;97259.88;1817143;77;25809;-79
2021/04/11 05:30:03;;;;;;;28.80;14.43;;;;;;;2.91;66.41;97254.86;1847293;77;25729;-79
2021/04/11 05:32:31;;;;;;;23.22;12.60;;;;;;;2.93;66.41;97248.87;1847504;77;25419;-79
2021/04/11 05:35:00;;;;;;;23.83;12.07;;;;;;;3.02;66.38;97251.85;1847087;77;25826;-79
2021/04/11 05:37:58;;;;;;;28.73;13.50;;;;;;;3.09;66.37;97244.03;1847044;77;27479;-79
2021/04/11 05:40:36;;;;;;;22.30;11.80;;;;;;;3.14;66.45;97241.70;1846870;77;26380;-79
2021/04/11 05:43:09;;;;;;;23.65;13.75;;;;;;;3.24;66.59;97248.52;1846975;77;25650;-79
2021/04/11 05:45:56;;;;;;;22.50;12.37;;;;;;;3.33;66.60;97240.48;1846935;76;26166;-79
2021/04/11 05:48:46;;;;;;;22.25;10.53;;;;;;;3.41;66.57;97243.13;1828383;77;25645;-79
2021/04/11 05:51:24;;;;;;;19.52;10.65;;;;;;;3.49;66.39;97247.97;1847038;77;27939;-79
2021/04/11 05:54:12;;;;;;;15.25;9.23;;;;;;;3.60;66.29;97248.09;1830088;77;25676;-79
2021/04/11 05:56:45;;;;;;;13.40;7.78;;;;;;;3.68;66.15;97244.06;1846783;77;25718;-80
2021/04/11 05:59:14;;;;;;;;;;;;;;;3.79;66.07;97238.34;1849762;77;25685;-79
2021/04/11 06:01:50;;;;;;;19.65;8.58;;;;;;;3.90;66.06;97246.47;1846988;77;25741;-79
2021/04/11 06:04:37;;;;;;;18.32;8.63;;;;;;;3.97;65.92;97237.61;1847001;76;27491;-79
2021/04/11 06:07:19;;;;;;;21.07;10.95;;;;;;;4.08;65.85;97236.89;1846945;77;25666;-80
2021/04/11 06:09:51;;;;;;;24.75;11.83;;;;;;;4.21;65.89;97231.81;1846087;77;25720;-80
2021/04/11 06:12:58;;;;;;;22.82;10.13;;;;;;;4.36;65.98;97228.69;1847229;77;25697;-80
2021/04/11 06:15:35;;;;;;;17.07;9.25;;;;;;;4.52;66.00;97233.94;1846918;77;25329;-80
2021/04/11 06:18:08;;;;;;;16.77;7.83;;;;;;;4.70;66.00;97230.48;1846929;77;27458;-80
2021/04/11 06:20:38;;;;;;;16.02;8.48;;;;;;;4.87;65.69;97231.16;1846925;77;26130;-77
2021/04/11 06:23:13;;;;;;;18.70;9.58;;;;;;;5.06;65.72;97233.36;1846890;77;25756;-79
2021/04/11 06:25:58;;;;;;;17.10;7.85;;;;;;;5.24;65.64;97227.66;1846970;77;25724;-80
2021/04/11 06:29:03;;;;;;;11.40;7.17;;;;;;;5.40;65.46;97219.47;1846219;77;25815;-80
2021/04/11 06:31:51;;;;;;;7.83;5.15;;;;;;;5.60;65.27;97225.10;1846889;77;27491;-80
2021/04/11 06:34:26;;;;;;;12.68;6.28;;;;;;;5.83;64.67;97226.34;1846135;76;25660;-80
2021/04/11 06:36:59;;;;;;;15.08;6.65;;;;;;;6.02;64.28;97221.80;1846885;76;25767;-80
2021/04/11 06:39:32;;;;;;;15.20;7.03;;;;;;;6.23;64.21;97222.85;1846964;77;25712;-80
2021/04/11 06:42:11;;;;;;;15.28;7.40;;;;;;;6.37;63.93;97213.95;1846815;77;25706;-80
2021/04/11 06:45:04;;;;;;;15.72;7.80;;;;;;;6.52;63.61;97201.84;1845185;77;28473;-80
2021/04/11 06:48:04;;;;;;;20.12;7.62;;;;;;;6.67;63.22;97200.73;1847002;77;25720;-80
2021/04/11 06:50:43;;;;;;;13.80;7.20;;;;;;;6.80;62.78;97203.55;1847082;77;25752;-80
2021/04/11 06:53:42;;;;;;;12.65;7.15;;;;;;;6.96;62.39;97209.67;1846900;77;26244;-80
2021/04/11 06:56:36;;;;;;;11.73;6.28;;;;;;;7.08;62.17;97208.12;1846955;77;25739;-80
2021/04/11 06:59:36;;;;;;;13.30;6.75;;;;;;;7.23;62.01;97200.82;1846922;77;27512;-80
2021/04/11 07:02:25;;;;;;;11.18;5.65;;;;;;;7.40;61.85;97191.42;1846879;77;25730;-80
2021/04/11 07:05:16;;;;;;;14.70;5.60;;;;;;;7.62;61.95;97188.66;1846922;77;25871;-80
2021/04/11 07:08:26;;;;;;;10.30;4.97;;;;;;;7.81;61.18;97183.92;1846927;77;25716;-80
2021/04/11 07:11:34;;;;;;;13.98;4.83;;;;;;;7.95;60.76;97178.41;1846911;77;25290;-78
2021/04/11 07:14:51;;;;;;;7.85;4.40;;;;;;;8.22;60.43;97178.48;1846960;77;27456;-80
2021/04/11 07:17:57;;;;;;;11.57;4.53;;;;;;;8.50;59.95;97175.71;1846057;76;25989;-79
2021/04/11 07:20:55;;;;;;;8.08;4.65;;;;;;;8.77;59.36;97169.34;1846819;77;25740;-79
2021/04/11 07:23:58;;;;;;;8.45;4.62;;;;;;;8.96;58.88;97165.82;1846775;77;25744;-80
2021/04/11 07:27:18;;;;;;;11.83;5.03;;;;;;;9.16;58.46;97171.74;1847317;77;25687;-80
2021/04/11 07:30:17;;;;;;;9.50;5.12;;;;;;;9.45;58.08;97167.23;1846986;77;27536;-80
2021/04/11 07:33:16;;;;;;;11.75;4.42;;;;;;;9.75;57.58;97173.81;1846786;76;25254;-81
2021/04/11 07:36:31;;;;;;;8.00;4.12;;;;;;;10.03;57.10;97175.36;1846881;77;25791;-81
2021/04/11 07:39:50;;;;;;;12.47;3.45;;;;;;;10.39;56.58;97171.59;1846805;77;25780;-81
2021/04/11 07:42:50;;;;;;;10.58;4.03;;;;;;;10.97;56.66;97163.35;1846823;77;25720;-81
2021/04/11 07:46:05;;;;;;;10.88;4.03;;;;;;;11.63;56.21;97157.33;1846922;77;27481;-81
2021/04/11 07:48:54;;;;;;;8.10;4.08;;;;;;;12.25;55.30;97155.39;1846454;77;26230;-82
2021/04/11 07:51:51;;;;;;;8.63;4.03;;;;;;;12.98;54.13;97153.83;1846888;77;25733;-82
2021/04/11 07:54:46;;;;;;;7.45;4.30;;;;;;;13.63;52.95;97160.05;1846865;77;26146;-82
2021/04/11 07:57:44;;;;;;;8.03;3.77;;;;;;;14.26;51.80;97159.75;1805144;77;25689;-82
2021/04/11 08:00:26;;;;;;;8.83;2.87;;;;;;;14.81;51.30;97161.41;1846832;77;28381;-82
2021/04/11 08:03:29;;;;;;;8.40;3.35;;;;;;;15.36;49.82;97161.53;1786927;77;25694;-81
2021/04/11 08:06:08;;;;;;;6.92;3.10;;;;;;;15.83;49.15;97155.73;1846668;77;25668;-81
2021/04/11 08:08:43;;;;;;;8.85;3.75;;;;;;;16.32;47.73;97151.75;1846931;76;25710;-81
2021/04/11 08:11:41;;;;;;;5.47;3.30;;;;;;;16.66;46.83;97154.66;1844919;77;25726;-81
2021/04/11 08:14:54;;;;;;;5.03;2.92;;;;;;;17.07;45.96;97148.23;1846843;76;27430;-82
2021/04/11 08:18:17;;;;;;;6.97;3.25;;;;;;;17.50;45.18;97148.61;1846987;77;25705;-81
2021/04/11 08:21:25;;;;;;;5.80;3.02;;;;;;;17.76;44.67;97138.16;1846798;77;25617;-81
2021/04/11 08:24:32;;;;;;;6.28;3.17;;;;;;;18.18;44.17;97136.77;1846732;76;25820;-81
2021/04/11 08:27:29;;;;;;;7.40;2.77;;;;;;;18.41;42.84;97135.48;1846974;77;25893;-81
2021/04/11 08:30:29;;;;;;;6.75;3.42;;;;;;;18.62;41.99;97139.13;1846184;77;27953;-81
2021/04/11 08:33:23;;;;;;;4.10;2.25;;;;;;;18.94;41.55;97151.26;1846583;77;25854;-82
2021/04/11 08:36:49;;;;;;;6.97;2.90;;;;;;;19.25;40.39;97140.62;1845904;76;25831;-81
2021/04/11 08:39:57;;;;;;;3.62;2.77;;;;;;;19.66;39.87;97137.36;1846870;77;25669;-82
2021/04/11 08:42:48;;;;;;;5.05;2.05;;;;;;;20.16;38.93;97150.68;1846903;77;25286;-81
2021/04/11 08:45:46;;;;;;;4.37;1.95;;;;;;;20.42;37.60;97137.16;1846927;77;27544;-80
2021/04/11 08:48:44;;;;;;;4.12;1.85;;;;;;;20.64;35.83;97137.36;1846690;77;25693;-81
2021/04/11 08:51:41;;;;;;;3.15;1.90;;;;;;;20.72;33.80;97140.88;1846810;77;25746;-80
2021/04/11 08:54:43;;;;;;;4.58;1.70;;;;;;;20.61;33.83;97137.36;1846563;77;25782;-82
2021/04/11 08:57:31;;;;;;;3.58;1.47;;;;;;;20.68;33.78;97129.63;1847055;77;25841;-79
2021/04/11 09:00:10;;;;;;;3.35;1.62;;;;;;;20.81;31.84;97137.24;1846815;77;28458;-81
2021/04/11 09:03:01;;;;;;;4.17;1.85;;;;;;;20.68;31.13;97143.34;1846672;77;25740;-81
2021/04/11 09:06:07;;;;;;;3.50;1.60;;;;;;;20.75;31.57;97143.87;1846911;77;25753;-81
2021/04/11 09:09:04;;;;;;;5.17;1.52;;;;;;;20.66;29.45;97152.95;1846845;77;25507;-81
2021/04/11 09:12:00;;;;;;;4.12;1.47;;;;;;;20.13;29.92;97141.09;1846980;77;25757;-81
2021/04/11 09:15:05;;;;;;;3.90;1.60;;;;;;;20.07;30.31;97144.92;1846170;77;27570;-81
2021/04/11 09:21:24;;;;;;;5.42;1.90;;;;;;;20.49;30.38;97130.02;1873528;76;25673;-80
2021/04/11 09:24:05;;;;;;;4.10;1.67;;;;;;;20.61;30.61;97131.88;1852729;76;25720;-80
2021/04/11 09:27:02;;;;;;;8.25;2.22;;;;;;;20.75;29.90;97126.59;1852856;77;28911;-81
2021/04/11 09:29:44;;;;;;;4.67;1.80;;;;;;;20.89;30.37;97122.09;1852658;77;25822;-80
2021/04/11 09:32:38;;;;;;;4.03;1.47;;;;;;;20.72;29.99;97122.48;1852851;77;32344;-79
2021/04/11 09:35:39;;;;;;;6.33;1.85;;;;;;;20.39;29.36;97128.15;1852334;77;25694;-77
2021/04/11 09:38:35;;;;;;;2.75;2.08;;;;;;;20.45;29.95;97117.96;1750603;77;25790;-81
2021/04/11 09:41:34;;;;;;;5.10;2.10;;;;;;;20.80;29.67;97126.55;1852768;77;27490;-80
2021/04/11 09:44:53;;;;;;;6.35;2.20;;;;;;;21.13;29.47;97112.05;1842747;76;26064;-79
2021/04/11 09:47:41;;;;;;;4.47;2.05;;;;;;;21.37;28.50;97112.20;1805984;77;25796;-80
2021/04/11 09:50:33;;;;;;;4.22;2.00;;;;;;;21.43;27.63;97109.66;1852638;77;26111;-81
2021/04/11 09:53:23;;;;;;;5.47;2.20;;;;;;;21.48;28.31;97111.55;1852461;77;25817;-81
2021/04/11 09:56:17;;;;;;;3.05;1.70;;;;;;;21.61;28.17;97108.69;1851737;77;28589;-80
2021/04/11 09:59:09;;;;;;;4.87;2.27;;;;;;;21.68;28.47;97091.30;1852437;77;25795;-81
2021/04/11 10:02:08;;;;;;;5.53;1.95;;;;;;;21.68;28.47;97091.30;1799846;77;25859;-80
2021/04/11 10:05:15;;;;;;;4.03;1.80;;;;;;;21.37;28.08;97073.76;1851384;77;25733;-79
2021/04/11 10:08:10;;;;;;;6.17;2.00;;;;;;;21.37;28.08;97073.76;1849007;77;25802;-79
2021/04/11 10:10:58;;;;;;;5.22;2.30;;;;;;;21.33;28.17;97100.70;1852571;77;27548;-78
2021/04/11 10:13:51;;;;;;;4.95;2.40;;;;;;;21.15;28.00;97092.01;1852459;76;25763;-80
2021/04/11 10:16:46;;;;;;;;;;;;;;;21.11;27.97;97093.70;1854939;76;25776;-79
2021/04/11 10:19:52;;;;;;;7.05;1.80;;;;;;;21.15;27.43;97093.38;1852103;77;26153;-83
2021/04/11 10:22:56;;;;;;;3.42;1.80;;;;;;;21.18;27.84;97092.84;1847695;77;25657;-78
2021/04/11 10:25:31;;;;;;;3.85;1.45;;;;;;;21.28;28.06;97093.86;1847209;77;27564;-79
2021/04/11 10:28:38;;;;;;;6.80;1.50;;;;;;;21.57;28.00;97100.20;1847446;77;25744;-80
2021/04/11 10:31:20;;;;;;;3.75;1.70;;;;;;;21.62;25.64;97104.81;1847344;77;25872;-78
2021/04/11 10:33:56;;;;;;;3.12;1.40;;;;;;;21.56;25.91;97104.05;1847080;77;25682;-77
2021/04/11 10:39:30;;;;;;;4.80;1.47;;;;;;;21.82;26.10;97108.20;1886963;75;26118;-78
2021/04/11 10:42:29;;;;;;;2.45;1.30;;;;;;;21.47;24.05;97090.69;1856582;77;25946;-79
2021/04/11 10:45:02;;;;;;;2.15;1.40;;;;;;;21.47;24.05;97090.69;1857836;77;27476;-78
2021/04/11 10:48:02;;;;;;;3.62;1.98;;;;;;;21.85;26.41;97108.17;1857766;77;26199;-79
2021/04/11 10:51:16;;;;;;;2.25;1.30;;;;;;;21.85;26.41;97108.17;1857864;77;25677;-78
2021/04/11 10:53:52;;;;;;;2.37;1.10;;;;;;;21.77;25.85;97108.23;1857812;77;25738;-80
2021/04/11 10:56:46;;;;;;;4.72;1.50;;;;;;;21.59;25.48;97108.16;1857192;77;25729;-81
2021/04/11 10:59:54;;;;;;;3.65;1.70;;;;;;;21.37;25.15;97110.00;1857815;77;27424;-80
2021/04/11 11:03:19;;;;;;;4.22;1.62;;;;;;;21.18;26.21;97108.46;1857798;77;26104;-78
2021/04/11 11:06:23;;;;;;;3.15;1.60;;;;;;;21.01;26.57;97108.84;1857881;77;25649;-80
2021/04/11 11:09:08;;;;;;;5.53;1.80;;;;;;;20.65;26.37;97115.11;1857889;77;26149;-80
2021/04/11 11:11:53;;;;;;;3.70;1.70;;;;;;;20.57;26.33;97123.94;1850557;77;25797;-79
2021/04/11 11:15:11;;;;;;;4.70;1.62;;;;;;;20.29;26.25;97126.77;1825043;77;28398;-79
2021/04/11 11:18:15;;;;;;;2.98;1.52;;;;;;;19.90;27.18;97123.08;1857774;77;26123;-79
2021/04/11 11:21:21;;;;;;;2.98;1.70;;;;;;;19.60;27.52;97138.44;1817794;78;26320;-80
2021/04/11 11:24:09;;;;;;;1.75;1.22;;;;;;;19.38;27.86;97141.44;1817623;77;25749;-79
2021/04/11 11:27:15;;;;;;;4.42;1.92;;;;;;;19.10;27.61;97145.25;1817178;78;25310;-80
2021/04/11 11:30:04;;;;;;;1.55;1.30;;;;;;;18.84;28.26;97152.04;1817773;78;27492;-80
2021/04/11 11:32:46;;;;;;;2.40;1.22;;;;;;;18.96;28.75;97145.77;1817595;78;25721;-79
2021/04/11 11:35:16;;;;;;;5.47;1.70;;;;;;;19.27;28.87;97136.24;1817705;78;25859;-80
2021/04/11 11:38:10;;;;;;;4.45;1.40;;;;;;;19.47;28.85;97141.70;1817518;78;26091;-79
2021/04/11 11:40:45;;;;;;;7.45;1.95;;;;;;;19.41;28.41;97130.50;1817666;78;25866;-80
2021/04/11 11:43:21;;;;;;;3.42;1.45;;;;;;;19.20;28.89;97141.17;1817596;78;27490;-80
2021/04/11 11:46:42;;;;;;;1.67;1.07;;;;;;;19.17;29.32;97140.34;1817596;78;25785;-79
2021/04/11 11:49:47;;;;;;;2.90;1.30;;;;;;;19.05;29.20;97138.70;1817406;78;25704;-80
2021/04/11 11:52:28;;;;;;;3.47;1.30;;;;;;;18.89;29.22;97134.28;1817042;78;25709;-80
2021/04/11 11:55:00;;;;;;;3.37;1.00;;;;;;;18.69;29.28;97135.62;1817225;78;26292;-80
2021/04/11 11:57:44;;;;;;;3.02;1.22;;;;;;;18.50;29.35;97135.23;1850052;77;27503;-79
2021/04/11 12:00:39;;;;;;;2.12;1.55;;;;;;;18.30;29.89;97141.46;1857104;77;26228;-80
2021/04/11 12:03:17;;;;;;;3.27;1.60;;;;;;;18.17;30.14;97148.78;1857133;77;25630;-80
2021/04/11 12:06:04;;;;;;;1.65;1.00;;;;;;;17.94;30.59;97156.02;1857162;77;25876;-80
2021/04/11 12:08:59;;;;;;;3.10;1.17;;;;;;;17.80;31.17;97152.11;1857265;77;25799;-80
2021/04/11 12:11:53;;;;;;;2.15;1.17;;;;;;;17.71;31.31;97156.42;1857225;77;27461;-80
2021/04/11 12:14:38;;;;;;;2.05;1.20;;;;;;;17.54;31.61;97157.90;1857112;77;26133;-79
2021/04/11 12:17:20;;;;;;;5.20;1.15;;;;;;;17.45;32.08;97156.20;1857030;77;25674;-80
2021/04/11 12:20:05;;;;;;;2.67;1.30;;;;;;;17.41;32.29;97154.25;1857086;77;26030;-80
2021/04/11 12:22:38;;;;;;;1.95;1.10;;;;;;;17.27;32.34;97154.69;1855260;77;25795;-80
2021/04/11 12:25:29;;;;;;;1.77;0.90;;;;;;;17.23;32.62;97150.84;1857223;77;27580;-80
2021/04/11 12:27:57;;;;;;;1.55;1.10;;;;;;;17.16;32.82;97152.13;1856584;77;25654;-80
2021/04/11 12:30:34;;;;;;;3.85;1.20;;;;;;;17.05;33.10;97147.66;1824055;77;25887;-79
2021/04/11 12:33:22;;;;;;;1.62;0.98;;;;;;;16.99;33.41;97147.35;1857066;77;25677;-79
2021/04/11 12:36:02;;;;;;;2.30;1.27;;;;;;;17.02;33.66;97149.57;1802028;77;25409;-80
2021/04/11 12:38:41;;;;;;;1.67;1.22;;;;;;;16.95;33.83;97139.39;1841053;76;27485;-79
2021/04/11 12:41:37;;;;;;;3.12;0.90;;;;;;;16.89;34.15;97133.91;1822810;78;25987;-80
2021/04/11 12:44:42;;;;;;;2.87;1.30;;;;;;;16.92;34.21;97141.55;1823005;78;25788;-79
2021/04/11 12:47:37;;;;;;;4.37;1.90;;;;;;;16.89;34.24;97146.18;1822949;77;25623;-79
2021/04/11 12:50:10;;;;;;;1.77;1.45;;;;;;;16.77;34.36;97145.52;1822344;77;25672;-79
2021/04/11 12:53:04;;;;;;;3.17;1.65;;;;;;;16.65;34.45;97147.56;1822450;78;28486;-81
2021/04/11 12:55:43;;;;;;;3.83;1.27;;;;;;;16.58;34.53;97146.35;1822890;78;25755;-80
2021/04/11 12:58:36;;;;;;;3.02;1.05;;;;;;;16.56;34.89;97151.77;1822831;78;25780;-79
2021/04/11 13:01:29;;;;;;;3.52;1.37;;;;;;;16.56;34.69;97152.59;1823116;78;25738;-80
2021/04/11 13:04:07;;;;;;;1.85;1.10;;;;;;;16.50;34.66;97151.44;1817355;78;25619;-80